Time;durP1;ratioP1;P1;durP2;ratioP2;P2;SDS_P1;SDS_P2;PMS_P1;PMS_P2;Temp;Humidity;BMP_temperature;BMP_pressure;BME280_temperature;BME280_humidity;BME280_pressure;Samples;Min_cycle;Max_cycle;Signal;HPM_P1;HPM_P2
2023/09/06 00:00:43;;;;;;;0.00;0.00;;;;;;;21.60;60.58;101911.22;5101788;28;20029;-78
2023/09/06 00:03:10;;;;;;;0.00;0.00;;;;;;;21.53;61.73;101912.44;5087572;28;20089;-78
2023/09/06 00:05:41;;;;;;;0.03;0.03;;;;;;;21.54;61.94;101918.72;5095764;28;20032;-80
2023/09/06 00:08:08;;;;;;;0.40;0.40;;;;;;;21.52;61.36;101912.53;5093817;28;20023;-79
2023/09/06 00:10:38;;;;;;;0.10;0.10;;;;;;;21.50;61.41;101920.69;5095768;28;20025;-79
2023/09/06 00:13:06;;;;;;;0.10;0.10;;;;;;;21.50;61.39;101923.38;5094969;28;20020;-79
2023/09/06 00:15:32;;;;;;;0.10;0.10;;;;;;;21.50;61.54;101913.47;5103173;28;20032;-80
2023/09/06 00:17:58;;;;;;;0.15;0.15;;;;;;;21.50;61.34;101907.22;5098285;28;20028;-79
2023/09/06 00:20:25;;;;;;;0.10;0.10;;;;;;;21.46;61.55;101911.03;5097129;28;20502;-79
2023/09/06 00:22:56;;;;;;;0.05;0.05;;;;;;;21.49;61.56;101919.81;5099421;28;20532;-79
2023/09/06 00:25:22;;;;;;;0.13;0.13;;;;;;;21.47;61.08;101918.13;5093364;28;20397;-80
2023/09/06 00:27:50;;;;;;;0.10;0.10;;;;;;;21.45;61.58;101920.06;5091908;28;20711;-79
2023/09/06 00:30:18;;;;;;;0.10;0.10;;;;;;;21.43;61.23;101916.53;5092410;28;20066;-80
2023/09/06 00:32:45;;;;;;;0.10;0.10;;;;;;;21.41;61.29;101913.94;5094249;28;20106;-80
2023/09/06 00:35:12;;;;;;;0.10;0.10;;;;;;;21.40;61.37;101911.31;5097022;28;20035;-78
2023/09/06 00:37:40;;;;;;;0.05;0.05;;;;;;;21.39;61.63;101909.56;5101561;28;20035;-81
2023/09/06 00:40:22;;;;;;;0.00;0.00;;;;;;;21.40;61.04;101916.72;5099944;28;20108;-81
2023/09/06 00:42:52;;;;;;;0.03;0.03;;;;;;;21.39;61.19;101912.25;5090203;28;20036;-81
2023/09/06 00:45:22;;;;;;;0.10;0.10;;;;;;;21.36;61.06;101921.38;5091353;28;20020;-80
2023/09/06 00:47:52;;;;;;;0.10;0.10;;;;;;;21.36;61.04;101917.78;5102860;28;20035;-80
2023/09/06 00:50:20;;;;;;;0.13;0.13;;;;;;;21.31;61.24;101910.81;5097543;28;20028;-80
2023/09/06 00:52:48;;;;;;;0.10;0.10;;;;;;;21.28;61.45;101913.66;5099167;28;20053;-80
2023/09/06 00:55:14;;;;;;;0.00;0.00;;;;;;;21.26;61.57;101915.56;5101454;28;20023;-80
2023/09/06 00:57:41;;;;;;;0.00;0.00;;;;;;;21.24;61.65;101914.75;5093557;28;20025;-80
2023/09/06 01:00:14;;;;;;;0.10;0.10;;;;;;;21.22;61.49;101919.34;5085105;28;20025;-79
2023/09/06 01:02:40;;;;;;;0.10;0.10;;;;;;;21.18;62.04;101917.72;5098119;28;20023;-81
2023/09/06 01:05:07;;;;;;;0.10;0.10;;;;;;;21.15;61.62;101912.50;5096113;28;20017;-80
2023/09/06 01:07:37;;;;;;;0.00;0.00;;;;;;;21.12;62.10;101909.94;5090306;28;20061;-80
2023/09/06 01:10:04;;;;;;;0.17;0.17;;;;;;;21.09;61.68;101912.78;5092095;28;20020;-81
2023/09/06 01:12:30;;;;;;;0.10;0.10;;;;;;;21.07;61.85;101914.66;5097079;28;20039;-79
2023/09/06 01:14:57;;;;;;;0.00;0.00;;;;;;;21.03;61.96;101913.94;5088498;28;20028;-80
2023/09/06 01:17:26;;;;;;;0.00;0.00;;;;;;;21.02;61.65;101912.19;5087082;28;20036;-79
2023/09/06 01:20:02;;;;;;;0.20;0.20;;;;;;;21.00;61.89;101908.72;5098082;28;20118;-80
2023/09/06 01:22:35;;;;;;;0.10;0.10;;;;;;;20.97;62.15;101908.84;5093918;28;20020;-81
2023/09/06 01:25:02;;;;;;;0.10;0.10;;;;;;;20.92;61.99;101906.38;5098475;28;20857;-79
2023/09/06 01:27:28;;;;;;;0.05;0.05;;;;;;;20.89;62.39;101909.19;5082134;28;20054;-80
2023/09/06 01:29:57;;;;;;;0.00;0.00;;;;;;;20.86;62.15;101909.34;5098175;28;20480;-79
2023/09/06 01:32:24;;;;;;;0.10;0.10;;;;;;;20.87;62.13;101913.78;5099784;28;20028;-81
2023/09/06 01:34:50;;;;;;;0.10;0.10;;;;;;;20.87;62.09;101913.78;5095683;28;20055;-79
2023/09/06 01:37:16;;;;;;;0.00;0.00;;;;;;;20.88;61.73;101909.28;5094333;28;20397;-78
2023/09/06 01:39:42;;;;;;;0.20;0.20;;;;;;;20.86;61.81;101912.06;5102080;28;20035;-78
2023/09/06 01:42:09;;;;;;;0.38;0.38;;;;;;;20.84;62.14;101913.94;5100844;28;20488;-79
2023/09/06 01:44:35;;;;;;;0.10;0.10;;;;;;;20.83;61.82;101917.56;5094652;28;20024;-80
2023/09/06 01:47:03;;;;;;;0.10;0.10;;;;;;;20.80;62.31;101912.34;5093088;28;20089;-80
2023/09/06 01:49:29;;;;;;;0.10;0.10;;;;;;;20.79;62.26;101916.84;5102704;28;20024;-81
2023/09/06 01:51:57;;;;;;;1.23;0.52;;;;;;;20.78;62.61;101919.59;5104511;28;20050;-80
2023/09/06 01:54:24;;;;;;;0.15;0.15;;;;;;;20.77;62.51;101917.84;5099935;28;20024;-80
2023/09/06 01:56:50;;;;;;;0.05;0.05;;;;;;;20.76;62.08;101911.59;5100429;28;20038;-81
2023/09/06 01:59:17;;;;;;;0.03;0.03;;;;;;;20.75;61.71;101919.72;5091088;28;20025;-80
2023/09/06 02:01:43;;;;;;;0.00;0.00;;;;;;;20.75;62.22;101917.94;5094024;28;20020;-79
2023/09/06 02:04:09;;;;;;;0.30;0.30;;;;;;;20.75;62.33;101927.81;5105747;28;20024;-78
2023/09/06 02:06:35;;;;;;;0.03;0.03;;;;;;;20.73;62.31;101922.50;5113402;28;20035;-82
2023/09/06 02:09:02;;;;;;;0.10;0.10;;;;;;;20.73;62.49;101927.03;5107123;28;20044;-78
2023/09/06 02:11:28;;;;;;;0.00;0.00;;;;;;;20.72;62.28;101919.88;5102698;28;20388;-81
2023/09/06 02:13:54;;;;;;;0.00;0.00;;;;;;;20.71;62.58;101915.41;5103400;28;20331;-81
2023/09/06 02:16:21;;;;;;;0.10;0.10;;;;;;;20.69;62.49;101915.47;5100203;28;20106;-80
2023/09/06 02:18:48;;;;;;;0.00;0.00;;;;;;;20.68;62.39;101919.97;5101453;28;20181;-80
2023/09/06 02:21:14;;;;;;;0.00;0.00;;;;;;;20.66;62.25;101916.50;5095083;28;20036;-80
2023/09/06 02:23:40;;;;;;;0.10;0.10;;;;;;;20.65;62.26;101920.13;5092570;28;20108;-80
2023/09/06 02:26:06;;;;;;;0.13;0.13;;;;;;;20.65;62.24;101922.81;5103219;28;20068;-81
2023/09/06 02:28:34;;;;;;;0.10;0.10;;;;;;;20.63;62.28;101916.63;5101895;28;20101;-81
2023/09/06 02:31:00;;;;;;;0.03;0.03;;;;;;;20.62;62.33;101931.06;5100817;28;20060;-80
2023/09/06 02:33:28;;;;;;;0.10;0.10;;;;;;;20.61;62.38;101934.69;5095527;28;20146;-81
2023/09/06 02:35:54;;;;;;;0.00;0.00;;;;;;;20.59;62.19;101933.88;5095803;28;20024;-81
2023/09/06 02:38:20;;;;;;;0.00;0.00;;;;;;;20.58;62.38;101932.13;5089179;28;20032;-82
2023/09/06 02:40:46;;;;;;;0.00;0.00;;;;;;;20.57;62.71;101937.56;5099009;28;20020;-81
2023/09/06 02:43:13;;;;;;;0.00;0.00;;;;;;;20.56;62.47;101934.03;5096255;28;20028;-80
2023/09/06 02:45:39;;;;;;;0.30;0.30;;;;;;;20.55;63.14;101932.28;5099041;28;20423;-79
2023/09/06 02:48:11;;;;;;;0.00;0.00;;;;;;;20.56;62.87;101938.50;5096134;28;20032;-80
2023/09/06 02:50:39;;;;;;;;;;;;;;;20.67;62.83;101939.78;5089655;28;20107;-80
2023/09/06 02:53:15;;;;;;;0.10;0.10;;;;;;;20.54;63.21;101935.91;5094270;28;19915;-80
2023/09/06 02:55:42;;;;;;;0.00;0.00;;;;;;;20.54;63.13;101938.59;5101822;28;20028;-81
2023/09/06 02:58:08;;;;;;;0.10;0.10;;;;;;;20.54;63.05;101933.19;5098162;28;20070;-81
2023/09/06 03:00:35;;;;;;;0.10;0.10;;;;;;;20.53;63.12;101928.75;5099207;28;20023;-80
2023/09/06 03:03:05;;;;;;;0.10;0.10;;;;;;;20.52;63.01;101935.06;5099735;28;20087;-78
2023/09/06 03:05:32;;;;;;;0.10;0.10;;;;;;;20.52;62.90;101935.97;5102574;28;20050;-77
2023/09/06 03:07:58;;;;;;;0.10;0.10;;;;;;;20.52;63.00;101945.84;5103735;28;20077;-80
2023/09/06 03:10:24;;;;;;;0.10;0.10;;;;;;;20.52;63.03;101937.78;5103474;28;20063;-80
2023/09/06 03:12:56;;;;;;;0.00;0.00;;;;;;;20.54;63.11;101938.59;5097366;28;20516;-80
2023/09/06 03:15:23;;;;;;;0.10;0.10;;;;;;;20.51;62.85;101945.00;5093246;28;20143;-80
2023/09/06 03:17:51;;;;;;;0.05;0.05;;;;;;;20.50;62.92;101931.59;5095305;28;20290;-81
2023/09/06 03:20:18;;;;;;;0.00;0.00;;;;;;;20.49;62.69;101924.47;5092190;28;20024;-80
2023/09/06 03:22:47;;;;;;;0.08;0.08;;;;;;;20.48;63.31;101936.16;5093059;28;20035;-80
2023/09/06 03:25:15;;;;;;;0.00;0.00;;;;;;;20.45;63.03;101945.25;5093220;28;20028;-81
2023/09/06 03:27:42;;;;;;;0.45;0.45;;;;;;;20.44;63.03;101943.50;5096954;28;20100;-80
2023/09/06 03:30:09;;;;;;;0.20;0.20;;;;;;;20.43;63.01;101947.13;5093689;28;20501;-79
2023/09/06 03:32:35;;;;;;;0.20;0.20;;;;;;;20.42;62.57;101947.22;5093684;28;20096;-81
2023/09/06 03:35:04;;;;;;;0.00;0.00;;;;;;;20.42;62.54;101944.50;5097679;28;20088;-79
2023/09/06 03:37:30;;;;;;;0.10;0.10;;;;;;;20.39;62.52;101950.91;5094783;28;20035;-81
2023/09/06 03:39:58;;;;;;;0.00;0.00;;;;;;;20.38;63.02;101948.28;5093040;28;20020;-81
2023/09/06 03:42:24;;;;;;;1.10;1.05;;;;;;;20.35;62.55;101947.47;5095714;28;20027;-82
2023/09/06 03:44:50;;;;;;;0.10;0.10;;;;;;;20.33;62.89;101952.03;5090814;28;20069;-81
2023/09/06 03:47:16;;;;;;;0.10;0.10;;;;;;;20.35;62.91;101960.06;5093497;28;20047;-81
2023/09/06 03:49:45;;;;;;;0.00;0.00;;;;;;;20.33;62.92;101957.41;5094322;28;20067;-80
2023/09/06 03:52:11;;;;;;;0.10;0.10;;;;;;;20.31;63.34;101963.81;5094506;28;20058;-81
2023/09/06 03:54:38;;;;;;;0.10;0.10;;;;;;;20.30;62.70;101957.56;5094269;28;20027;-81
2023/09/06 03:57:05;;;;;;;0.10;0.10;;;;;;;20.28;62.96;101961.28;5088836;28;20059;-81
2023/09/06 03:59:35;;;;;;;0.10;0.10;;;;;;;20.25;63.32;101959.59;5096732;28;20071;-79
2023/09/06 04:02:02;;;;;;;0.00;0.00;;;;;;;20.25;63.09;101966.78;5096019;28;20028;-81
2023/09/06 04:04:29;;;;;;;0.00;0.00;;;;;;;20.22;62.83;101964.22;5091168;28;20035;-79
2023/09/06 04:06:55;;;;;;;0.10;0.10;;;;;;;20.20;63.38;101967.84;5086550;28;20064;-82
2023/09/06 04:09:28;;;;;;;0.00;0.00;;;;;;;20.19;63.12;101962.53;5093555;28;20370;-81
2023/09/06 04:11:58;;;;;;;0.00;0.00;;;;;;;20.16;63.51;101960.84;5090584;28;20081;-81
2023/09/06 04:14:24;;;;;;;0.00;0.00;;;;;;;20.14;63.81;101962.72;5092512;28;20039;-80
2023/09/06 04:16:50;;;;;;;0.10;0.10;;;;;;;20.13;63.72;101960.13;5091650;28;20098;-80
2023/09/06 04:19:16;;;;;;;0.10;0.10;;;;;;;20.11;63.91;101968.25;5092155;28;20020;-77
2023/09/06 04:21:47;;;;;;;0.00;0.00;;;;;;;20.10;63.49;101960.22;5089312;28;20032;-78
2023/09/06 04:24:14;;;;;;;0.10;0.10;;;;;;;20.09;63.56;101958.47;5093901;28;20021;-80
2023/09/06 04:26:40;;;;;;;0.10;0.10;;;;;;;20.08;63.36;101962.13;5099033;28;20035;-80
2023/09/06 04:29:06;;;;;;;0.10;0.10;;;;;;;20.07;63.68;101955.00;5103161;28;20044;-79
2023/09/06 04:31:32;;;;;;;0.10;0.10;;;;;;;20.06;63.39;101970.25;5108485;28;20024;-80
2023/09/06 04:34:01;;;;;;;0.10;0.10;;;;;;;20.08;63.29;101970.19;5099835;28;20484;-81
2023/09/06 04:36:27;;;;;;;0.10;0.10;;;;;;;20.06;63.77;101958.63;5098817;28;20027;-80
2023/09/06 04:38:56;;;;;;;0.17;0.17;;;;;;;20.06;63.59;101955.94;5098885;28;20028;-81
2023/09/06 04:41:22;;;;;;;0.10;0.10;;;;;;;20.06;63.27;101955.94;5089244;28;20016;-81
2023/09/06 04:43:48;;;;;;;0.10;0.10;;;;;;;20.05;63.42;101957.75;5094147;28;20036;-81
2023/09/06 04:46:14;;;;;;;0.10;0.10;;;;;;;20.05;63.38;101963.13;5097804;28;20039;-81
2023/09/06 04:48:40;;;;;;;0.00;0.00;;;;;;;20.04;63.76;101961.38;5098850;28;20046;-81
2023/09/06 04:51:06;;;;;;;0.10;0.10;;;;;;;20.05;63.50;101973.91;5098713;28;20047;-80
2023/09/06 04:53:33;;;;;;;0.10;0.10;;;;;;;20.04;63.80;101972.13;5098596;28;20043;-81
2023/09/06 04:56:02;;;;;;;0.10;0.10;;;;;;;20.03;63.37;101973.94;5095753;28;20043;-78
2023/09/06 04:58:29;;;;;;;0.10;0.10;;;;;;;20.01;63.64;101981.22;5097144;28;20020;-80
2023/09/06 05:00:56;;;;;;;0.10;0.10;;;;;;;20.01;63.42;101981.22;5098823;28;20020;-80
2023/09/06 05:03:22;;;;;;;0.20;0.20;;;;;;;20.01;63.53;101991.97;5098230;28;20063;-79
2023/09/06 05:05:48;;;;;;;0.10;0.10;;;;;;;20.01;63.72;101983.00;5097541;28;20044;-79
2023/09/06 05:08:14;;;;;;;0.10;0.10;;;;;;;20.01;63.80;101986.59;5099136;28;20036;-81
2023/09/06 05:10:40;;;;;;;0.00;0.00;;;;;;;20.02;63.85;101987.47;5102811;28;20030;-80
2023/09/06 05:13:07;;;;;;;0.10;0.10;;;;;;;20.04;63.67;101988.28;5102119;28;20044;-81
2023/09/06 05:15:38;;;;;;;0.10;0.10;;;;;;;20.07;63.64;101987.28;5098873;28;20043;-79
2023/09/06 05:18:05;;;;;;;0.10;0.10;;;;;;;20.06;63.53;101986.38;5102514;28;20055;-79
2023/09/06 05:20:33;;;;;;;0.10;0.10;;;;;;;20.07;63.30;101998.03;5102961;28;20058;-81
2023/09/06 05:23:05;;;;;;;0.10;0.10;;;;;;;20.10;63.50;101992.50;5102925;28;20028;-79
2023/09/06 05:25:32;;;;;;;0.68;0.68;;;;;;;20.10;63.49;101992.50;5101674;28;20039;-79
2023/09/06 05:28:01;;;;;;;0.10;0.10;;;;;;;20.10;63.57;101992.50;5101550;28;20520;-81
2023/09/06 05:30:28;;;;;;;0.10;0.10;;;;;;;20.10;63.45;101995.19;5093961;28;20595;-82
2023/09/06 05:32:55;;;;;;;0.20;0.20;;;;;;;20.12;63.88;101999.56;5100454;28;20035;-79
2023/09/06 05:35:22;;;;;;;0.00;0.00;;;;;;;20.13;63.91;102003.16;5099984;28;20024;-82
2023/09/06 05:37:49;;;;;;;0.00;0.00;;;;;;;20.14;63.70;102007.59;5099101;28;20035;-80
2023/09/06 05:40:16;;;;;;;0.00;0.00;;;;;;;20.16;63.78;102008.41;5101292;28;20032;-82
2023/09/06 05:42:42;;;;;;;0.00;0.00;;;;;;;20.16;63.44;102014.69;5101871;28;20264;-80
2023/09/06 05:45:11;;;;;;;0.10;0.10;;;;;;;20.16;63.74;102006.59;5099952;28;20035;-81
2023/09/06 05:47:38;;;;;;;0.10;0.10;;;;;;;20.16;64.24;102008.41;5102415;28;20024;-81
2023/09/06 05:50:06;;;;;;;0.00;0.00;;;;;;;20.18;63.69;102011.91;5101763;28;20030;-80
2023/09/06 05:52:32;;;;;;;0.10;0.10;;;;;;;20.18;63.71;102015.47;5099508;28;20036;-79
2023/09/06 05:55:04;;;;;;;0.75;0.75;;;;;;;20.18;63.56;102014.59;5100702;28;20429;-78
2023/09/06 05:57:32;;;;;;;0.00;0.00;;;;;;;20.19;63.79;102009.16;5095977;28;20423;-79
2023/09/06 05:59:58;;;;;;;0.10;0.10;;;;;;;20.21;64.01;102014.47;5096343;28;20030;-80
2023/09/06 06:02:24;;;;;;;0.00;0.00;;;;;;;20.23;63.74;102015.28;5098108;28;20038;-79
2023/09/06 06:04:52;;;;;;;0.10;0.10;;;;;;;20.24;64.48;102011.66;5098458;28;20032;-78
2023/09/06 06:07:19;;;;;;;0.10;0.10;;;;;;;20.27;63.98;102019.59;5091423;28;20063;-80
2023/09/06 06:09:45;;;;;;;0.40;0.40;;;;;;;20.29;64.18;102019.53;5101314;28;20032;-80
2023/09/06 06:12:11;;;;;;;0.10;0.10;;;;;;;20.31;63.94;102017.63;5095158;28;20035;-81
2023/09/06 06:14:38;;;;;;;0.03;0.03;;;;;;;20.33;64.24;102016.63;5089191;28;20028;-79
2023/09/06 06:17:06;;;;;;;0.15;0.15;;;;;;;20.39;64.28;102025.38;5097189;28;20039;-81
2023/09/06 06:19:33;;;;;;;0.03;0.03;;;;;;;20.41;63.93;102013.63;5098896;28;20054;-80
2023/09/06 06:22:02;;;;;;;0.03;0.03;;;;;;;20.47;64.09;102020.56;5089549;28;20038;-80
2023/09/06 06:24:29;;;;;;;0.10;0.10;;;;;;;20.51;64.29;102027.56;5093909;28;20706;-80
2023/09/06 06:26:56;;;;;;;0.00;0.00;;;;;;;20.56;64.33;102019.28;5094832;28;20066;-82
2023/09/06 06:29:22;;;;;;;0.10;0.10;;;;;;;20.61;64.51;102022.66;5089409;28;20032;-79
2023/09/06 06:31:48;;;;;;;0.10;0.10;;;;;;;20.67;64.36;102030.47;5084389;28;20032;-78
2023/09/06 06:34:15;;;;;;;0.10;0.10;;;;;;;20.72;64.47;102030.28;5098513;28;20046;-80
2023/09/06 06:36:41;;;;;;;0.10;0.10;;;;;;;20.78;64.90;102033.59;5100329;28;20107;-78
2023/09/06 06:39:10;;;;;;;0.25;0.25;;;;;;;20.82;65.07;102034.31;5094323;28;20040;-79
2023/09/06 06:41:36;;;;;;;0.10;0.10;;;;;;;20.89;64.64;102041.19;5089167;28;20024;-80
2023/09/06 06:44:02;;;;;;;2.53;0.57;;;;;;;20.93;64.78;102050.88;5096663;28;20078;-79
2023/09/06 06:49:07;;;;;;;0.10;0.10;;;;;;;21.11;64.19;102045.59;5088816;27;20144;-80
2023/09/06 06:51:35;;;;;;;0.03;0.03;;;;;;;21.18;64.36;102041.69;5097106;28;20028;-80
2023/09/06 06:54:03;;;;;;;0.00;0.00;;;;;;;21.26;63.69;102044.94;5102621;28;20032;-79
2023/09/06 06:56:29;;;;;;;0.10;0.10;;;;;;;21.31;64.07;102048.28;5098525;28;20583;-82
2023/09/06 06:58:55;;;;;;;0.20;0.20;;;;;;;21.39;64.13;102047.06;5090560;28;20209;-83
2023/09/06 07:01:23;;;;;;;0.08;0.08;;;;;;;21.45;64.62;102049.47;5087886;28;20032;-81
2023/09/06 07:03:49;;;;;;;0.28;0.28;;;;;;;21.52;63.98;102050.94;5085370;28;20032;-82
2023/09/06 07:06:15;;;;;;;0.10;0.10;;;;;;;21.58;64.32;102050.69;5085720;28;20408;-79
2023/09/06 07:08:41;;;;;;;0.00;0.00;;;;;;;21.65;64.48;102054.81;5084644;28;20032;-80
2023/09/06 07:11:07;;;;;;;0.20;0.20;;;;;;;21.73;64.02;102048.19;5085583;28;20032;-81
2023/09/06 07:13:34;;;;;;;0.03;0.03;;;;;;;21.79;65.18;102048.78;5090664;28;20021;-81
2023/09/06 07:16:00;;;;;;;0.10;0.10;;;;;;;21.86;64.62;102046.66;5090061;28;20028;-81
2023/09/06 07:18:27;;;;;;;0.10;0.10;;;;;;;21.93;64.53;102048.09;5078591;28;20080;-82
2023/09/06 07:20:53;;;;;;;0.10;0.10;;;;;;;22.02;64.25;102048.56;5084668;28;20040;-81
2023/09/06 07:23:19;;;;;;;0.10;0.10;;;;;;;22.11;64.04;102054.41;5082474;28;20036;-82
2023/09/06 07:25:47;;;;;;;0.45;0.45;;;;;;;22.20;63.81;102054.91;5080254;28;20041;-82
2023/09/06 07:28:14;;;;;;;0.10;0.10;;;;;;;22.28;63.88;102055.38;5080210;28;20103;-83
2023/09/06 07:30:42;;;;;;;0.10;0.10;;;;;;;22.36;63.87;102057.72;5081194;28;20029;-82
2023/09/06 07:33:08;;;;;;;0.10;0.10;;;;;;;22.44;64.17;102066.31;5090496;28;20028;-78
2023/09/06 07:35:34;;;;;;;0.30;0.30;;;;;;;22.50;63.73;102060.59;5087671;28;20029;-81
2023/09/06 07:38:00;;;;;;;0.10;0.10;;;;;;;22.57;63.16;102066.56;5093437;28;20025;-81
2023/09/06 07:40:26;;;;;;;0.10;0.10;;;;;;;22.64;62.93;102056.31;5085931;28;20374;-82
2023/09/06 07:42:53;;;;;;;0.00;0.00;;;;;;;22.70;62.74;102051.47;5085539;28;20036;-81
2023/09/06 07:45:19;;;;;;;0.08;0.08;;;;;;;22.76;62.55;102064.66;5081092;28;20047;-79
2023/09/06 07:47:45;;;;;;;0.90;0.90;;;;;;;22.82;62.56;102063.47;5091260;28;20038;-80
2023/09/06 07:50:11;;;;;;;0.40;0.40;;;;;;;22.89;62.44;102072.13;5080123;28;20046;-80
2023/09/06 07:52:38;;;;;;;0.10;0.10;;;;;;;22.94;62.77;102068.22;5080833;28;20028;-79
2023/09/06 07:55:05;;;;;;;0.20;0.20;;;;;;;23.05;62.46;102069.47;5090449;28;20063;-80
2023/09/06 07:57:31;;;;;;;0.10;0.10;;;;;;;23.14;62.86;102069.00;5092345;28;20056;-80
2023/09/06 07:59:58;;;;;;;0.10;0.10;;;;;;;23.25;62.42;102069.31;5083475;28;20040;-80
2023/09/06 08:02:24;;;;;;;0.10;0.10;;;;;;;23.37;62.31;102069.59;5079878;28;20032;-81
2023/09/06 08:04:51;;;;;;;0.10;0.10;;;;;;;23.45;62.08;102067.34;5075488;28;20032;-79
2023/09/06 08:07:17;;;;;;;0.10;0.10;;;;;;;23.56;61.98;102077.56;5078428;28;20385;-81
2023/09/06 08:09:44;;;;;;;0.10;0.10;;;;;;;23.68;61.73;102076.88;5080057;28;20025;-81
2023/09/06 08:12:10;;;;;;;1.05;0.28;;;;;;;23.77;61.55;102083.59;5079012;28;21072;-81
2023/09/06 08:14:37;;;;;;;0.10;0.10;;;;;;;23.86;61.59;102075.00;5078523;28;20440;-83
2023/09/06 08:17:03;;;;;;;0.10;0.10;;;;;;;23.94;61.74;102081.81;5078159;28;20029;-80
2023/09/06 08:19:29;;;;;;;0.10;0.10;;;;;;;24.03;61.46;102081.28;5079658;28;20040;-81
2023/09/06 08:21:55;;;;;;;0.10;0.10;;;;;;;24.14;61.23;102081.53;5074884;28;20047;-80
2023/09/06 08:24:21;;;;;;;0.10;0.10;;;;;;;24.22;61.29;102076.56;5066033;28;20052;-81
2023/09/06 08:26:48;;;;;;;0.60;0.30;;;;;;;24.32;61.34;102081.44;5078734;28;20409;-81
2023/09/06 08:29:14;;;;;;;0.10;0.10;;;;;;;24.46;60.91;102078.78;5079780;28;20029;-81
2023/09/06 08:31:41;;;;;;;0.15;0.15;;;;;;;24.59;60.78;102078.06;5082219;28;20147;-80
2023/09/06 08:34:07;;;;;;;0.20;0.20;;;;;;;24.70;60.49;102076.47;5081112;28;20036;-79
2023/09/06 08:36:33;;;;;;;0.10;0.10;;;;;;;24.82;60.31;102079.41;5081793;28;20029;-81
2023/09/06 08:39:00;;;;;;;0.43;0.43;;;;;;;24.93;59.99;102076.03;5080482;28;20032;-83
2023/09/06 08:41:27;;;;;;;0.90;0.65;;;;;;;25.07;60.04;102075.19;5078628;28;20067;-81
2023/09/06 08:43:54;;;;;;;0.10;0.10;;;;;;;25.19;59.40;102079.84;5079944;28;20028;-79
2023/09/06 08:46:33;;;;;;;0.30;0.30;;;;;;;25.33;58.78;102081.69;5080510;28;20496;-80
2023/09/06 08:49:03;;;;;;;0.13;0.13;;;;;;;25.37;58.39;102077.81;5082398;28;20431;-78
2023/09/06 08:51:35;;;;;;;0.10;0.10;;;;;;;25.50;58.97;102076.06;5082725;28;20039;-78
2023/09/06 08:54:05;;;;;;;0.00;0.00;;;;;;;25.59;58.16;102081.91;5078578;28;20108;-79
2023/09/06 08:56:32;;;;;;;0.32;0.32;;;;;;;25.74;58.42;102083.59;5077510;28;20084;-79
2023/09/06 08:58:59;;;;;;;0.00;0.00;;;;;;;25.88;58.16;102079.13;5077578;28;20055;-80
2023/09/06 09:01:26;;;;;;;0.00;0.00;;;;;;;25.98;58.09;102080.25;5074286;28;20021;-80
2023/09/06 09:03:52;;;;;;;0.10;0.10;;;;;;;26.08;57.11;102078.72;5073910;28;20036;-80
2023/09/06 09:06:18;;;;;;;0.05;0.05;;;;;;;26.19;56.55;102075.28;5069751;28;20088;-80
2023/09/06 09:08:44;;;;;;;0.20;0.20;;;;;;;26.25;56.74;102079.44;5081316;28;20028;-81
2023/09/06 09:11:13;;;;;;;0.10;0.10;;;;;;;26.34;55.51;102070.66;5080727;28;20048;-81
2023/09/06 09:13:39;;;;;;;0.25;0.25;;;;;;;26.46;56.60;102079.84;5080661;28;20032;-81
2023/09/06 09:16:15;;;;;;;0.10;0.10;;;;;;;26.58;55.35;102081.72;5071837;28;20413;-80
2023/09/06 09:18:43;;;;;;;0.00;0.00;;;;;;;26.62;55.29;102079.66;5072719;28;20036;-79
2023/09/06 09:21:11;;;;;;;0.00;0.00;;;;;;;26.75;55.66;102069.69;5072881;28;20035;-81
2023/09/06 09:23:47;;;;;;;0.05;0.05;;;;;;;26.91;55.41;102069.50;5066713;28;20108;-79
2023/09/06 09:26:13;;;;;;;0.10;0.10;;;;;;;26.98;55.00;102072.66;5064540;28;20017;-80
2023/09/06 09:28:42;;;;;;;0.10;0.10;;;;;;;27.09;54.75;102072.78;5062636;28;20039;-81
2023/09/06 09:31:16;;;;;;;0.10;0.10;;;;;;;27.23;54.32;102065.47;5082026;28;20029;-81
2023/09/06 09:33:44;;;;;;;0.10;0.10;;;;;;;27.28;53.78;102063.31;5082225;28;20029;-79
2023/09/06 09:36:13;;;;;;;0.10;0.10;;;;;;;27.40;53.92;102070.63;5080356;28;20024;-80
2023/09/06 09:38:42;;;;;;;0.10;0.10;;;;;;;27.45;51.07;102064.81;5080812;28;20024;-81
2023/09/06 09:41:09;;;;;;;0.10;0.10;;;;;;;27.60;52.54;102071.88;5074544;28;20043;-80
2023/09/06 09:43:35;;;;;;;0.08;0.08;;;;;;;27.72;53.41;102069.22;5080414;28;20028;-80
2023/09/06 09:46:02;;;;;;;0.05;0.05;;;;;;;27.86;53.19;102063.59;5073923;28;20028;-78
2023/09/06 09:48:30;;;;;;;0.05;0.05;;;;;;;27.98;52.39;102070.00;5077893;28;20033;-80
2023/09/06 09:50:57;;;;;;;0.03;0.03;;;;;;;28.08;51.77;102075.66;5075981;28;20029;-80
2023/09/06 09:53:24;;;;;;;0.00;0.00;;;;;;;28.22;51.28;102078.19;5074676;28;20058;-79
2023/09/06 09:55:55;;;;;;;0.00;0.00;;;;;;;28.37;51.96;102080.75;5071505;28;20074;-80
2023/09/06 09:58:22;;;;;;;0.10;0.10;;;;;;;28.41;50.19;102071.34;5072389;28;20032;-80
2023/09/06 10:00:50;;;;;;;0.10;0.10;;;;;;;28.48;49.45;102067.16;5074345;28;20070;-81
2023/09/06 10:03:17;;;;;;;0.10;0.10;;;;;;;28.62;51.47;102070.69;5065300;28;20039;-81
2023/09/06 10:05:45;;;;;;;0.00;0.00;;;;;;;28.73;51.36;102055.25;5072429;28;20029;-81
2023/09/06 10:08:13;;;;;;;0.08;0.08;;;;;;;28.85;50.38;102064.34;5066095;28;20032;-82
2023/09/06 10:10:40;;;;;;;0.30;0.22;;;;;;;28.97;50.57;102062.47;5067225;28;20029;-81
2023/09/06 10:13:08;;;;;;;0.22;0.22;;;;;;;29.07;51.06;102061.75;5076704;28;20040;-80
2023/09/06 10:15:35;;;;;;;0.05;0.05;;;;;;;29.15;50.95;102060.16;5072155;28;20180;-80
2023/09/06 10:18:03;;;;;;;0.10;0.10;;;;;;;29.19;50.69;102058.91;5074484;28;20028;-81
2023/09/06 10:20:32;;;;;;;0.17;0.17;;;;;;;29.29;51.09;102061.81;5071646;28;20034;-80
2023/09/06 10:22:59;;;;;;;0.75;0.40;;;;;;;29.36;50.07;102056.72;5060159;28;20060;-81
2023/09/06 10:25:26;;;;;;;0.17;0.17;;;;;;;29.47;50.77;102050.38;5068251;28;20035;-81
2023/09/06 10:27:56;;;;;;;0.20;0.20;;;;;;;29.54;49.55;102054.34;5072118;28;20036;-83
2023/09/06 10:30:44;;;;;;;0.30;0.30;;;;;;;29.66;49.80;102053.34;5075932;28;20033;-81
2023/09/06 10:33:31;;;;;;;0.05;0.05;;;;;;;29.74;49.94;102054.56;5072955;28;20106;-81
2023/09/06 10:36:02;;;;;;;0.00;0.00;;;;;;;29.84;49.77;102052.78;5073460;28;20037;-80
2023/09/06 10:38:30;;;;;;;0.38;0.38;;;;;;;29.84;48.77;102050.06;5066271;28;20115;-82
2023/09/06 10:46:37;;;;;;;0.05;0.05;;;;;;;30.06;49.45;102056.47;5060936;28;20423;-82
2023/09/06 10:49:22;;;;;;;0.17;0.10;;;;;;;30.20;49.00;102048.00;5047097;28;20087;-82
2023/09/06 10:52:10;;;;;;;0.95;0.52;;;;;;;30.30;48.80;102045.34;5039863;28;20063;-82
2023/09/06 10:54:44;;;;;;;0.10;0.10;;;;;;;30.34;49.05;102047.69;5042790;28;20026;-83
2023/09/06 10:57:12;;;;;;;0.32;0.32;;;;;;;30.37;49.13;102049.28;5030369;28;20037;-82
2023/09/06 11:05:06;;;;;;;0.03;0.03;;;;;;;30.64;47.89;102046.06;5105605;27;20363;-81
2023/09/06 11:07:43;;;;;;;0.10;0.10;;;;;;;30.66;46.64;102044.06;5080880;28;20033;-81
2023/09/06 11:10:10;;;;;;;0.20;0.20;;;;;;;30.71;47.54;102045.53;5083205;28;20035;-81
2023/09/06 11:12:37;;;;;;;0.00;0.00;;;;;;;30.74;47.36;102042.50;5086824;28;20126;-81
2023/09/06 11:15:05;;;;;;;0.00;0.00;;;;;;;30.80;47.25;102041.97;5083375;28;20097;-81
2023/09/06 11:17:32;;;;;;;0.10;0.10;;;;;;;30.91;47.78;102044.63;5085596;28;20116;-79
2023/09/06 11:20:17;;;;;;;0.10;0.10;;;;;;;31.08;46.54;102042.28;5082353;28;20029;-80
2023/09/06 11:22:51;;;;;;;0.05;0.05;;;;;;;31.17;46.31;102033.28;5079420;28;20107;-81
2023/09/06 11:25:18;;;;;;;0.10;0.10;;;;;;;31.25;45.25;102038.91;5082676;28;20048;-83
2023/09/06 11:27:45;;;;;;;0.32;0.15;;;;;;;31.35;45.35;102036.22;5083074;28;20054;-81
2023/09/06 11:30:16;;;;;;;0.10;0.10;;;;;;;31.45;45.55;102036.25;5085900;28;20020;-82
2023/09/06 11:32:44;;;;;;;0.20;0.20;;;;;;;31.43;43.79;102035.53;5079441;28;20028;-80
2023/09/06 11:35:10;;;;;;;0.22;0.22;;;;;;;31.48;45.54;102024.16;5082068;28;20048;-80
2023/09/06 11:37:42;;;;;;;0.00;0.00;;;;;;;31.54;45.45;102029.06;5074080;28;20020;-82
2023/09/06 11:40:14;;;;;;;0.10;0.10;;;;;;;31.66;45.47;102032.59;5071736;28;20028;-79